Flight Track Log - Related Links

Times and Time Zones

All times are in EST time to prevent confusion due to time zone crossing. See the FFT909 flight status page for this flight to view local times or setup timezone preferences in your user account.

Time Position Orientation Groundspeed Altitude Reporting Facility
EST Latitude Longitude Course Direction KTS MPH feet Rate Location/Type
Wed 01:19:09 PM 40.2667 -74.8333 360° North 123 142 900  Level Philadelphia TRACON
Wed 01:19:27 PM 40.2667 -74.8333 270° West 133 153 1,600 2,154 Climbing Philadelphia TRACON
Wed 01:20:27 PM 40.2667 -74.9167 270° West 208 239 3,700 2,500 Climbing Philadelphia TRACON
Wed 01:21:27 PM 40.2333 -74.9833 237° Southwest 252 290 6,600 2,084 Climbing Philadelphia TRACON
Wed 01:22:02 PM 40.2139 -75.0275 240° Southwest 249 287 7,000 505 Climbing New York Center
Wed 01:23:02 PM 40.1708 -75.1253 240° Southwest 249 287 7,400 700 Climbing New York Center
Wed 01:24:02 PM 40.1369 -75.1939 237° Southwest 254 292 8,400 1,150 Climbing New York Center
Wed 01:25:02 PM 40.1072 -75.2625 240° Southwest 254 292 9,700 1,000 Climbing New York Center
Wed 01:26:02 PM 40.0594 -75.3650 239° Southwest 294 338 10,400 1,100 Climbing New York Center
Wed 01:27:02 PM 40.0117 -75.4650 238° Southwest 321 369 11,900 800 Climbing New York Center
Wed 01:28:02 PM 39.9719 -75.5761 245° Southwest 337 388 12,000 550 Climbing New York Center
Wed 01:29:02 PM 39.9728 -75.7033 271° West 352 405 13,000 2,100 Climbing New York Center
Wed 01:30:02 PM 39.9778 -75.8339 273° West 362 417 16,200 3,150 Climbing New York Center
Wed 01:31:02 PM 39.9892 -75.9539 277° West 352 405 19,300 2,700 Climbing New York Center
Wed 01:32:02 PM 39.9961 -76.0792 274° West 352 405 21,600 2,100 Climbing New York Center
Wed 01:33:02 PM 40.0050 -76.2072 275° West 352 405 23,500 1,750 Climbing New York Center
Wed 01:34:02 PM 40.0094 -76.3322 273° West 368 423 25,100 1,600 Climbing New York Center
Wed 01:35:02 PM 40.0175 -76.4711 274° West 374 430 26,700 1,600 Climbing New York Center
Wed 01:36:02 PM 40.0253 -76.6072 274° West 379 436 28,300 1,600 Climbing New York Center
Wed 01:37:02 PM 40.0353 -76.7439 276° West 384 442 29,900 1,600 Climbing New York Center
Wed 01:38:02 PM 40.0428 -76.8828 274° West 384 442 31,500 1,600 Climbing New York Center
Wed 01:39:02 PM 40.0483 -77.0161 273° West 384 442 33,100 1,600 Climbing New York Center
Wed 01:40:02 PM 40.0556 -77.1525 274° West 384 442 34,700 1,094 Climbing New York Center
Wed 01:41:41 PM 40.0669 -77.3628 274° West 366 421 36,000 484 Climbing Cleveland Center
Wed 01:42:43 PM 40.0753 -77.5250 274° West 373 429 36,000  Level Cleveland Center
Wed 01:43:45 PM 40.0814 -77.6578 273° West 371 427 36,000  Level Cleveland Center
Wed 01:44:47 PM 40.0881 -77.7911 274° West 370 426 36,000  Level Cleveland Center
Wed 01:45:48 PM 40.0942 -77.9197 274° West 368 423 36,000  Level Cleveland Center
Wed 01:46:50 PM 40.1211 -78.0539 285° West 384 442 36,000  Level Cleveland Center
Wed 01:47:52 PM 40.1503 -78.1861 286° West 383 441 36,000  Level Cleveland Center
Wed 01:48:53 PM 40.1844 -78.3456 286° West 381 438 36,000  Level Cleveland Center
Wed 01:49:55 PM 40.2147 -78.4839 286° West 391 450 36,000 48 Level Cleveland Center
Wed 01:50:57 PM 40.2439 -78.6236 285° West 398 458 36,100  Climbing Cleveland Center
Wed 01:51:58 PM 40.2733 -78.7631 286° West 399 459 36,000 -49 Descending Cleveland Center
Wed 01:53:00 PM 40.3031 -78.9022 286° West 398 458 36,000  Level Cleveland Center
Wed 01:54:02 PM 40.3342 -79.0436 286° West 409 471 36,000  Level Cleveland Center
Wed 01:55:04 PM 40.3628 -79.1833 285° West 401 461 36,000  Level Cleveland Center
Wed 01:56:06 PM 40.3978 -79.3533 285° West 405 466 36,000  Level Cleveland Center
Wed 01:57:07 PM 40.4281 -79.5000 285° West 423 487 36,000 -244 Level Cleveland Center
Wed 01:58:09 PM 40.4564 -79.6414 285° West 409 471 35,500 -581 Descending Cleveland Center
Wed 01:59:11 PM 40.4872 -79.7853 286° West 415 478 34,800 -919 Descending Cleveland Center
Wed 02:00:13 PM 40.5172 -79.9283 285° West 408 470 33,600 -1,306 Descending Cleveland Center
Wed 02:01:15 PM 40.5478 -80.0697 286° West 407 468 32,100 -1,452 Descending Cleveland Center
Wed 02:02:17 PM 40.5739 -80.2136 283° West 408 470 30,600 -1,024 Descending Cleveland Center
Wed 02:03:18 PM 40.6058 -80.3828 284° West 417 480 30,000 -293 Descending Cleveland Center
Wed 02:04:20 PM 40.6339 -80.5319 284° West 416 479 30,000  Level Cleveland Center
Wed 02:05:22 PM 40.6633 -80.6800 285° West 415 478 30,000  Level Cleveland Center
Wed 02:06:24 PM 40.7136 -80.8233 295° West 426 490 30,000  Level Cleveland Center
Wed 02:07:26 PM 40.7819 -80.9617 303° West 442 509 30,000  Level Cleveland Center
Wed 02:08:28 PM 40.8506 -81.1000 303° West 446 513 30,000  Level Cleveland Center
Wed 02:09:29 PM 40.9292 -81.2644 302° West 449 517 30,000  Level Cleveland Center
Wed 02:10:31 PM 40.9972 -81.4039 303° West 447 514 30,000  Level Cleveland Center
Wed 02:11:33 PM 41.0656 -81.5453 303° West 450 518 30,000 -194 Level Cleveland Center
Wed 02:12:35 PM 41.1342 -81.6864 303° West 448 516 29,600 -677 Descending Cleveland Center
Wed 02:13:37 PM 41.2011 -81.8258 303° West 438 504 28,600 -1,645 Descending Cleveland Center
Wed 02:14:39 PM 41.2650 -81.9633 302° West 429 494 26,200 -2,341 Descending Cleveland Center
Wed 02:15:40 PM 41.3264 -82.0939 302° West 417 480 23,800 -2,244 Descending Cleveland Center
Wed 02:16:42 PM 41.3886 -82.2150 304° West 398 458 21,600 -2,032 Descending Cleveland Center
Wed 02:17:44 PM 41.4567 -82.3258 309° West 384 442 19,600 -1,887 Descending Cleveland Center
Wed 02:18:46 PM 41.5217 -82.4356 308° West 378 435 17,700 -1,884 Descending Cleveland Center
Wed 02:19:10 PM 41.5511 -82.4892 306° West 371 427 16,900 -1,645 Descending Cleveland Center
Wed 02:19:48 PM 41.5858 -82.5422 311° West 366 421 16,000 -1,612 Descending Cleveland Center
Wed 02:20:17 PM 41.6222 -82.6069 307° West 355 409 15,100 -1,839 Descending Cleveland Center
Wed 02:20:50 PM 41.6539 -82.6569 310° West 352 405 14,100 -1,672 Descending Cleveland Center
Wed 02:21:18 PM 41.6819 -82.7069 307° West 339 390 13,400 -1,672 Descending Cleveland Center
Wed 02:21:51 PM 41.7128 -82.7567 310° West 343 395 12,400 -1,377 Descending Cleveland Center
Wed 02:22:19 PM 41.7419 -82.8014 311° West 334 384 12,000 -387 Descending Cleveland Center
Wed 02:22:53 PM 41.7786 -82.8428 320° Northwest 334 384 12,000  Level Cleveland Center
Wed 02:23:20 PM 41.8114 -82.8833 317° Northwest 341 392 12,000  Level Cleveland Center
Wed 02:23:55 PM 41.8458 -82.9311 314° West 339 390 12,000  Level Cleveland Center
Wed 02:24:15 PM 41.8631 -82.9769 297° West 334 384 12,000  Level Cleveland Center
Wed 02:24:57 PM 41.8939 -83.0386 304° West 336 387 12,000  Level Cleveland Center
Wed 02:25:16 PM 41.9117 -83.0817 299° West 332 382 12,000  Level Cleveland Center
Wed 02:25:59 PM 41.9419 -83.1422 304° West 331 381 12,000  Level Cleveland Center
Wed 02:26:11 PM 41.9567 -83.1778 299° West 329 379 12,000  Level Cleveland Center
Wed 02:27:01 PM 41.9953 -83.2572 303° West 329 379 12,000  Level Cleveland Center
Wed 02:27:12 PM 42.0053 -83.2828 298° West 328 377 12,000  Level Cleveland Center
Wed 02:28:02 PM 42.0419 -83.3611 302° West 324 373 12,000  Level Cleveland Center
Wed 02:28:13 PM 42.0553 -83.3908 301° West 318 366 12,000  Level Cleveland Center
Wed 02:29:04 PM 42.0983 -83.4561 312° West 326 375 12,000  Level Cleveland Center
Wed 02:29:20 PM 42.1333 -83.4667 347° North 335 386 12,000 -194 Level Cleveland Center
Wed 02:30:06 PM 42.1906 -83.4717 356° North 333 383 11,800 -545 Descending Cleveland Center
Wed 02:30:15 PM 42.2144 -83.4725 359° North 320 368 11,500 -1,452 Descending Cleveland Center
Wed 02:31:08 PM 42.2889 -83.4583 North 307 353 10,300 -1,254 Descending Cleveland Center
Wed 02:31:22 PM 42.3083 -83.4522 13° North 294 338 10,100 -1,452 Descending Cleveland Center
Wed 02:32:10 PM 42.3664 -83.4256 19° North 289 333 8,800 -1,770 Descending Cleveland Center
Wed 02:32:23 PM 42.3822 -83.4203 14° North 281 323 8,300 -1,645 Descending Cleveland Center
Wed 02:33:12 PM 42.4419 -83.3967 16° North 285 328 7,100 -1,500 Descending Cleveland Center
Wed 02:33:23 PM 42.4578 -83.3914 14° North 278 320 6,800 -1,935 Descending Cleveland Center
Wed 02:34:14 PM 42.4747 -83.3192 72° East 278 320 5,100 -1,967 Descending Cleveland Center
Wed 02:34:24 PM 42.4650 -83.2992 123° Southeast 256 295 4,800 -1,065 Descending Cleveland Center
Wed 02:35:16 PM 42.4386 -83.2458 124° Southeast 246 283 4,000 -774 Descending Cleveland Center
Wed 02:35:26 PM 42.4208 -83.2447 177° South 191 220 4,000  Level Cleveland Center
Wed 02:36:18 PM 42.3861 -83.2481 184° South 195 224 4,000  Level Cleveland Center
Wed 02:36:26 PM 42.3717 -83.2578 206° Southwest 177 204 4,000 -484 Level Cleveland Center
Wed 02:37:20 PM 42.3428 -83.2803 210° Southwest 179 206 3,500 -873 Descending Cleveland Center
Wed 02:37:21 PM 42.3339 -83.2864 207° Southwest 176 203 3,200 -1,065 Descending Cleveland Center
Wed 02:38:22 PM 42.2997 -83.3122 209° Southwest 178 205 2,400 -896 Descending Cleveland Center
Wed 02:38:28 PM 42.2850 -83.3219 206° Southwest 173 199 2,200 -984 Descending Cleveland Center
Wed 02:39:23 PM 42.2539 -83.3456 209° Southwest 122 140 1,400 -857 Descending Cleveland Center
Wed 02:39:24 PM 42.2558 -83.3453 North 153 176 1,400 -476 Level Cleveland Center
Wed 02:40:26 PM 42.2303 -83.3647 209° Southwest 137 158 900 -484 Descending Cleveland Center

Login

Don't have an account? Register now (free) for customized features, flight alerts, and more!